Aviation Digital Data Service (ADDS)

Output produced by METARs form (1316 UTC 15 November 2018)
found at http://www.aviationweather.gov/metar/data/
 
KRAP 151120Z 1512/1612 32015KT P6SM FEW200 WS020/32045KT 
     FM151600 33028G38KT P6SM SCT200 
     FM152300 32011KT P6SM SCT200 
     FM160300 26005KT P6SM BKN150
       
KRBG 151134Z 1512/1612 VRB02KT 3SM BR FEW005 SCT015 
     FM151500 00000KT 5SM BR OVC004 
     FM151800 36003KT P6SM SCT015 SCT200 
     FM160700 00000KT 4SM BR BKN010
       
KRBL 151122Z 1512/1612 32005KT 3SM HZ FU OVC015 
     FM151800 36006KT 3SM HZ FU SCT250
       
TAF KRCA 151100Z 1511/1617 32012G18KT 9999 SKC QNH3000INS 
     BECMG 1514/1515 31015G25KT 9999 SKC 510012 QNH3007INS 
     BECMG 1516/1517 33020G35KT 9999 SKC 520012 QNH3008INS 
     BECMG 1521/1522 31020G30KT 9999 SKC 510012 QNH3009INS 
     BECMG 1600/1601 31010G20KT 9999 SKC QNH3008INS 
     BECMG 1604/1605 26010KT 9999 SCT080 QNH2984INS TX14/1518Z TN00/1611Z
       
KRDD 151122Z 1512/1612 VRB03KT 4SM HZ FU SCT250 
     FM151800 36005KT 4SM HZ SCT250
       
KRDG 151126Z 1512/1612 05006KT P6SM BKN100 
     FM151300 06006KT P6SM OVC040 
     TEMPO 1515/1516 -SNPL OVC025 
     FM151600 06008KT 2SM -SNPL OVC012 
     FM151800 06010KT 1/2SM SNPL OVC004 
     FM160100 05012G22KT 1SM -FZRA BR OVC004 
     FM160500 02010KT 6SM -SHRA BR OVC006 
     FM160800 32010G20KT P6SM -SHRA BKN006 OVC025
       
KRDM 151120Z 1512/1612 VRB04KT P6SM SCT070 BKN250 
     FM152000 35004KT P6SM BKN200 
     FM160600 17005KT P6SM SCT250
       
TAF KRDR 151000Z 1510/1616 25009KT 9999 BKN100 QNH2972INS 
     BECMG 1514/1515 33012KT 9999 OVC010 620208 510205 QNH2974INS 
     TEMPO 1515/1521 33012G18KT 6000 -RASN OVC007 620109 
     BECMG 1520/1521 31010KT 9999 OVC018 QNH2985INS WND 36009KT AFT 1606 
     BECMG 1612/1613 01012G20KT 9999 BKN020 QNH3000INS TX02/1510Z TNM05/1610Z
       
KRDU 151136Z 1512/1612 04015G25KT 3SM -RA OVC007 WS020/07040KT 
     TEMPO 1512/1516 2SM RA BR 
     FM152000 35011KT 4SM -DZ BR OVC007 
     FM160300 27006KT P6SM OVC004 
     FM160600 27008KT P6SM OVC015 
     FM160800 29005KT P6SM SKC
       
KRIC 151315Z 1513/1612 04012G20KT P6SM -RA SCT008 OVC050 
     TEMPO 1513/1515 4SM -RA BR BKN008 
     FM151500 05014G22KT 4SM RA BR OVC006 
     FM160000 34008KT P6SM OVC005 
     FM160500 27011KT P6SM SCT006 BKN020 
     FM160800 26010KT P6SM SCT250
       
KRIL 151124Z 1512/1612 00000KT P6SM SKC 
     FM152000 31004KT P6SM SKC 
     FM160200 00000KT P6SM SKC
       
TAF KRIV 151204Z 1512/1618 VRB04KT 9999 SCT300 QNH3012INS 
     BECMG 1517/1518 06009KT 9999 BKN250 QNH3008INS 
     BECMG 1522/1523 32009KT 9999 BKN250 QNH3002INS 
     BECMG 1602/1603 VRB03KT 9999 BKN200 QNH3000INS TX26/1521Z TN02/1513Z
       
KRIW 151124Z 1512/1612 27012KT P6SM SCT200 
     FM151300 VRB06KT P6SM SCT200 
     FM152100 13008KT P6SM FEW200 
     FM160400 29011KT P6SM SCT200
       
KRKD 151131Z 1512/1612 32005KT P6SM FEW250 
     FM160400 10003KT 6SM -SN BKN040 
     FM160500 09006KT 4SM -SN BR OVC025
       
KRKS 151124Z 1512/1612 24010KT P6SM FEW200 
     FM151700 27013G23KT P6SM SCT200 
     FM160100 24011KT P6SM FEW120 SCT200
       
KRME 151131Z 1512/1612 VRB04KT P6SM SCT250 
     FM151500 11006KT P6SM BKN200 
     FM160100 10008KT 2SM -SN OVC020 
     FM160300 10008KT 1SM -SN OVC015 
     FM160700 06007KT 1/2SM SN OVC008 
     FM161100 VRB04KT 2SM -SN OVC020
       
KRNO 151129Z 1512/1612 00000KT P6SM SCT220 
     FM152200 08005KT P6SM FEW180 BKN220 
     FM160500 VRB03KT P6SM SCT200
       
KROA 151229Z 1512/1612 04008KT 4SM -RAPL BR OVC015 
     FM151400 04010KT 5SM -FZRA BR OVC010 WS020/07040KT 
     FM151800 02007KT 5SM -RA BR OVC010 
     FM152200 36005KT 5SM BR OVC010 
     FM160300 29007G19KT P6SM BKN020 
     FM160600 29015G27KT P6SM SCT040
       
KROC 151129Z 1512/1612 11007KT P6SM BKN200 
     FM152000 14013KT P6SM OVC040 
     FM152200 14012KT 2SM -SN OVC030 
     FM160000 12008KT 1SM -SN OVC020 
     FM161100 17005KT 2SM -SN OVC015
       
KROG 151120Z 1512/1612 00000KT P6SM SKC 
     FM151600 21010KT P6SM SKC
       
KROW 151120Z 1512/1612 01004KT P6SM SKC 
     FM152100 15006KT P6SM SKC 
     FM160300 25006KT P6SM SKC
       
KRSL 151132Z 1512/1612 21013KT P6SM SKC 
     FM151700 33013KT P6SM SKC
       
KRST 151130Z 1512/1612 18016G22KT P6SM FEW250 
     FM160000 23010KT P6SM BKN050 
     FM160300 29015KT P6SM -SN OVC008 
     FM160900 31015KT P6SM OVC012
       
KRSW 151120Z 1512/1612 35010G18KT P6SM VCSH SCT010 BKN025 
     TEMPO 1512/1514 5SM -RA BKN010 
     FM151500 33009KT P6SM SCT015 BKN025 
     FM151900 34010KT P6SM BKN030 
     FM152300 35008KT P6SM SCT030 BKN100 
     FM160200 36009KT P6SM SCT130
       
KRUT 151132Z 1512/1612 VRB04KT P6SM SCT250 
     FM160000 12009KT P6SM VCSH OVC090 
     FM160200 13011KT 1SM -SN BR OVC020
       
KRVS 151120Z 1512/1612 00000KT P6SM SKC 
     FM151800 19010KT P6SM SKC 
     FM160000 00000KT P6SM SKC
       
KRWI 151136Z 1512/1612 04015G25KT 3SM -RA OVC007 WS020/07040KT 
     TEMPO 1514/1518 2SM RA BR 
     FM152100 35011KT 4SM -DZ BR OVC007 
     FM160300 27006KT P6SM OVC004 
     FM160600 27008KT P6SM OVC015 
     FM160800 29005KT P6SM SKC
       
KRWL 151120Z 1512/1612 24015KT P6SM SCT250 
     FM151700 26015G23KT P6SM SCT250 
     FM160000 25010KT P6SM FEW250
       
KRYY 151127Z 1512/1612 00000KT 4SM -RA BR BKN004 BKN023 OVC030 
     FM151600 29006KT 6SM BR OVC015 
     FM151900 27010G22KT P6SM BKN015 
     FM160000 29010G18KT P6SM SCT030 
     FM160600 30009KT P6SM SCT150